createdAt,value
2024-04-12T00:02:00.812Z,4.90
2024-04-12T00:04:49.341Z,5.87
2024-04-12T00:07:36.512Z,7.77
2024-04-12T00:10:24.980Z,7.67
2024-04-12T00:13:12.116Z,5.50
2024-04-12T00:16:00.703Z,5.97
2024-04-12T00:18:49.298Z,6.47
2024-04-12T00:21:38.876Z,5.20
2024-04-12T00:24:29.010Z,4.97
2024-04-12T00:27:16.695Z,6.17
2024-04-12T00:30:06.112Z,5.63
2024-04-12T00:32:58.541Z,6.33
2024-04-12T00:35:55.292Z,5.07
2024-04-12T00:38:42.904Z,6.07
2024-04-12T00:41:31.740Z,4.77
2024-04-12T00:44:17.392Z,5.77
2024-04-12T00:47:08.741Z,8.03
2024-04-12T00:49:56.693Z,7.13
2024-04-12T00:52:47.777Z,5.10
2024-04-12T00:55:34.125Z,5.40
2024-04-12T00:58:22.534Z,5.70
2024-04-12T01:01:16.780Z,5.57
2024-04-12T01:04:02.576Z,6.27
2024-04-12T01:06:50.684Z,9.17
2024-04-12T01:09:39.036Z,7.40
2024-04-12T01:12:27.242Z,4.90
2024-04-12T01:15:13.000Z,4.83
2024-04-12T01:18:02.779Z,4.97
2024-04-12T01:20:48.843Z,6.40
2024-04-12T01:23:37.438Z,7.63
2024-04-12T01:26:29.066Z,6.50
2024-04-12T01:29:14.690Z,5.83
2024-04-12T01:32:05.638Z,6.17
2024-04-12T01:34:52.084Z,7.17
2024-04-12T01:37:45.244Z,6.70
2024-04-12T01:40:37.181Z,6.10
2024-04-12T01:43:28.396Z,5.77
2024-04-12T01:46:14.399Z,8.23
2024-04-12T01:49:02.493Z,5.60
2024-04-12T01:51:50.953Z,5.33
2024-04-12T01:54:36.231Z,6.83
2024-04-12T01:57:29.379Z,5.50
2024-04-12T02:00:18.557Z,8.10
2024-04-12T02:03:11.829Z,11.17
2024-04-12T02:05:57.873Z,5.43
2024-04-12T02:08:46.632Z,9.03
2024-04-12T02:11:33.219Z,6.93
2024-04-12T02:14:21.785Z,5.60
2024-04-12T02:17:12.087Z,5.47
2024-04-12T02:20:00.469Z,6.37
2024-04-12T02:22:47.073Z,7.73
2024-04-12T02:25:36.469Z,9.50
2024-04-12T02:28:22.848Z,6.80
2024-04-12T02:31:14.826Z,7.43
2024-04-12T02:34:04.166Z,6.37
2024-04-12T02:36:52.423Z,6.13
2024-04-12T02:39:41.971Z,9.30
2024-04-12T02:42:34.768Z,5.70
2024-04-12T02:45:20.210Z,4.67
2024-04-12T02:48:11.381Z,6.57
2024-04-12T02:51:04.356Z,4.67
2024-04-12T02:53:59.026Z,4.47
2024-04-12T02:56:45.887Z,4.80
2024-04-12T02:59:35.584Z,4.90
2024-04-12T03:02:21.472Z,5.97
2024-04-12T03:05:09.879Z,5.13
2024-04-12T03:07:57.774Z,8.30
2024-04-12T03:10:46.814Z,4.87
2024-04-12T03:13:37.297Z,3.37
2024-04-12T03:16:22.864Z,6.53
2024-04-12T03:19:12.351Z,3.83
2024-04-12T03:21:58.358Z,2.63
2024-04-12T03:24:48.920Z,3.40
2024-04-12T03:27:34.120Z,2.87
2024-04-12T03:30:22.195Z,2.13
2024-04-12T03:33:08.099Z,3.30
2024-04-12T03:35:56.291Z,2.10
2024-04-12T03:38:46.866Z,3.50
2024-04-12T03:41:37.956Z,2.20
2024-04-12T03:44:26.543Z,3.47
2024-04-12T03:47:14.868Z,3.07
2024-04-12T03:50:00.677Z,3.30
2024-04-12T03:52:49.490Z,3.77
2024-04-12T03:55:34.783Z,3.27
2024-04-12T03:58:25.542Z,3.43
2024-04-12T04:01:13.919Z,2.70
2024-04-12T04:04:11.270Z,3.63
2024-04-12T04:06:59.629Z,4.37
2024-04-12T04:09:45.432Z,3.20
2024-04-12T04:12:45.803Z,3.33
2024-04-12T04:15:34.866Z,3.53
2024-04-12T04:18:22.891Z,2.13
2024-04-12T04:21:08.871Z,3.67
2024-04-12T04:23:59.720Z,3.27
2024-04-12T04:26:52.110Z,7.40
2024-04-12T04:29:39.044Z,3.77
2024-04-12T04:32:30.043Z,4.17
2024-04-12T04:35:15.744Z,6.03
2024-04-12T04:38:04.603Z,5.53
2024-04-12T04:40:59.081Z,4.63
2024-04-12T04:43:47.661Z,8.13
2024-04-12T04:46:33.541Z,4.03
2024-04-12T04:49:26.890Z,5.10
2024-04-12T04:52:12.427Z,5.83
2024-04-12T04:55:00.686Z,4.07
2024-04-12T04:57:48.654Z,4.27
2024-04-12T05:00:42.255Z,3.27
2024-04-12T05:03:27.938Z,4.17
2024-04-12T05:06:25.536Z,5.60
2024-04-12T05:09:13.351Z,4.60
2024-04-12T05:12:02.333Z,3.50
2024-04-12T05:14:56.089Z,5.47
2024-04-12T05:17:44.835Z,4.23
2024-04-12T05:20:40.364Z,4.30
2024-04-12T05:23:31.519Z,5.40
2024-04-12T05:26:17.006Z,3.97
2024-04-12T05:29:07.324Z,3.73
2024-04-12T05:31:56.681Z,4.93
2024-04-12T05:34:46.780Z,5.03
2024-04-12T05:37:36.997Z,5.83
2024-04-12T05:40:28.093Z,5.20
2024-04-12T05:43:15.299Z,4.00
2024-04-12T05:46:06.853Z,3.37
2024-04-12T05:48:52.836Z,3.33
2024-04-12T05:51:41.698Z,4.93
2024-04-12T05:54:27.181Z,4.03
2024-04-12T05:57:20.273Z,4.83
2024-04-12T06:00:11.232Z,6.17
2024-04-12T06:03:00.394Z,7.30
2024-04-12T06:05:54.996Z,7.97
2024-04-12T06:08:43.314Z,7.07
2024-04-12T06:11:30.095Z,6.70
2024-04-12T06:14:22.189Z,8.13
2024-04-12T06:17:10.513Z,10.80
2024-04-12T06:20:00.500Z,10.30
2024-04-12T06:22:46.021Z,8.20
2024-04-12T06:25:39.215Z,7.23
2024-04-12T06:28:27.450Z,7.80
2024-04-12T06:31:21.455Z,9.97
2024-04-12T06:34:13.941Z,6.80
2024-04-12T06:37:07.476Z,7.30
2024-04-12T06:39:57.059Z,7.57
2024-04-12T06:42:43.252Z,6.67
2024-04-12T06:45:31.307Z,6.00
2024-04-12T06:48:20.942Z,7.30
2024-04-12T06:51:12.895Z,6.37
2024-04-12T06:53:58.697Z,9.40
2024-04-12T06:56:49.325Z,6.20
2024-04-12T06:59:36.876Z,6.60
2024-04-12T07:02:28.228Z,9.87
2024-04-12T07:05:17.176Z,4.97
2024-04-12T07:08:06.953Z,6.23
2024-04-12T07:10:52.653Z,8.07
2024-04-12T07:13:40.910Z,5.33
2024-04-12T07:16:27.931Z,12.00
2024-04-12T07:19:19.475Z,6.20
2024-04-12T07:22:12.670Z,5.10
2024-04-12T07:25:02.798Z,6.27
2024-04-12T07:27:55.048Z,8.70
2024-04-12T07:30:40.467Z,7.30
2024-04-12T07:33:28.867Z,8.60
2024-04-12T07:36:17.520Z,9.27
2024-04-12T07:39:10.088Z,6.27
2024-04-12T07:41:55.608Z,8.33
2024-04-12T07:44:43.743Z,6.97
2024-04-12T07:47:31.162Z,7.30
2024-04-12T07:50:22.792Z,13.53
2024-04-12T07:53:11.962Z,11.83
2024-04-12T07:56:09.565Z,10.70
2024-04-12T07:59:11.564Z,10.40
2024-04-12T08:02:09.961Z,12.00
2024-04-12T08:04:56.835Z,15.23
2024-04-12T08:07:45.449Z,14.20
2024-04-12T08:10:30.955Z,14.67
2024-04-12T08:13:24.413Z,16.23
2024-04-12T08:16:15.769Z,17.53
2024-04-12T08:19:01.532Z,18.03
2024-04-12T08:21:49.958Z,19.03
2024-04-12T08:24:36.395Z,19.20
2024-04-12T08:27:31.484Z,17.83
2024-04-12T08:30:21.387Z,18.83
2024-04-12T08:33:16.213Z,19.10
2024-04-12T08:36:03.714Z,20.00
2024-04-12T08:39:13.412Z,21.50
2024-04-12T08:42:01.075Z,17.33
2024-04-12T08:44:51.109Z,18.93
2024-04-12T08:47:52.886Z,15.37
2024-04-12T08:50:41.826Z,13.77
2024-04-12T08:53:30.357Z,13.27
2024-04-12T08:56:18.922Z,16.33
2024-04-12T08:59:06.873Z,16.33
2024-04-12T09:01:56.023Z,15.37
2024-04-12T09:04:44.853Z,13.80
2024-04-12T09:07:36.848Z,14.23
2024-04-12T09:10:22.270Z,10.23
2024-04-12T09:13:16.308Z,10.27
2024-04-12T09:16:04.770Z,12.63
2024-04-12T09:18:53.354Z,15.83
2024-04-12T09:21:48.947Z,17.47
2024-04-12T09:24:40.863Z,10.43
2024-04-12T09:27:35.639Z,10.43
2024-04-12T09:30:39.583Z,11.63
2024-04-12T09:33:32.814Z,10.80
2024-04-12T09:36:40.178Z,9.87
2024-04-12T09:39:42.508Z,10.47
2024-04-12T09:42:45.941Z,10.30
2024-04-12T09:45:46.970Z,10.63
2024-04-12T09:48:53.053Z,9.10
2024-04-12T09:51:56.992Z,10.83
2024-04-12T09:55:03.753Z,10.77
2024-04-12T09:58:11.178Z,12.07
2024-04-12T10:01:24.996Z,10.83
2024-04-12T10:04:28.899Z,8.07
2024-04-12T10:07:33.148Z,9.47
2024-04-12T10:10:42.150Z,8.10
2024-04-12T10:13:47.086Z,8.13
2024-04-12T10:16:58.476Z,6.73
2024-04-12T10:20:14.522Z,6.83
2024-04-12T10:23:23.132Z,7.03
2024-04-12T10:26:29.512Z,10.20
2024-04-12T10:29:35.143Z,7.70
2024-04-12T10:32:39.708Z,9.43
2024-04-12T10:35:43.981Z,6.20
2024-04-12T10:38:44.490Z,6.97
2024-04-12T10:41:37.618Z,9.50
2024-04-12T10:44:26.545Z,6.93
2024-04-12T10:47:15.809Z,6.70
2024-04-12T10:50:03.290Z,7.17
2024-04-12T10:52:52.485Z,6.63
2024-04-12T10:55:39.280Z,7.77
2024-04-12T10:58:34.760Z,6.23
2024-04-12T11:01:24.036Z,7.13
2024-04-12T11:04:14.111Z,6.17
2024-04-12T11:07:00.828Z,5.43
2024-04-12T11:09:58.758Z,4.73
2024-04-12T11:12:52.015Z,7.53
2024-04-12T11:15:59.394Z,5.63
2024-04-12T11:19:03.842Z,7.13
2024-04-12T11:22:08.108Z,5.53
2024-04-12T11:25:21.988Z,7.70
2024-04-12T11:28:26.571Z,4.73
2024-04-12T11:31:21.094Z,6.40
2024-04-12T11:34:12.218Z,6.03
2024-04-12T11:37:07.276Z,3.33
2024-04-12T11:39:54.142Z,4.20
2024-04-12T11:42:42.601Z,5.13
2024-04-12T11:45:31.818Z,4.03
2024-04-12T11:48:30.227Z,5.00
2024-04-12T11:51:17.035Z,4.33
2024-04-12T11:54:06.386Z,4.83
2024-04-12T11:56:52.208Z,5.03
2024-04-12T11:59:45.080Z,3.93
2024-04-12T12:02:32.956Z,4.53
2024-04-12T12:05:23.856Z,4.13
2024-04-12T12:08:14.000Z,3.87
2024-04-12T12:11:06.909Z,3.67
2024-04-12T12:13:53.835Z,4.20
2024-04-12T12:16:42.236Z,3.53
2024-04-12T12:19:27.767Z,3.50
2024-04-12T12:22:19.596Z,3.07
2024-04-12T12:25:09.003Z,3.70
2024-04-12T12:27:58.063Z,3.47
2024-04-12T12:30:48.666Z,3.17
2024-04-12T12:33:39.428Z,4.10
2024-04-12T12:36:28.907Z,5.37
2024-04-12T12:39:20.979Z,3.57
2024-04-12T12:42:11.031Z,6.20
2024-04-12T12:44:57.397Z,4.17
2024-04-12T12:47:46.340Z,3.43
2024-04-12T12:50:32.079Z,3.43
2024-04-12T12:53:21.381Z,2.93
2024-04-12T12:56:09.908Z,2.67
2024-04-12T12:58:58.794Z,3.77
2024-04-12T13:01:48.219Z,5.30
2024-04-12T13:04:37.235Z,5.33
2024-04-12T13:07:25.654Z,3.17
2024-04-12T13:10:13.546Z,4.20
2024-04-12T13:13:06.030Z,6.03
2024-04-12T13:15:55.370Z,3.90
2024-04-12T13:18:46.519Z,3.57
2024-04-12T13:21:32.185Z,3.57
2024-04-12T13:24:20.395Z,6.00
2024-04-12T13:27:08.730Z,3.70
2024-04-12T13:29:59.367Z,6.40
2024-04-12T13:32:49.534Z,4.30
2024-04-12T13:35:41.767Z,3.70
2024-04-12T13:38:31.714Z,5.77
2024-04-12T13:41:17.554Z,2.63
2024-04-12T13:44:09.969Z,5.63
2024-04-12T13:47:16.472Z,3.50
2024-04-12T13:50:21.114Z,3.03
2024-04-12T13:53:10.900Z,4.40
2024-04-12T13:56:18.247Z,4.10
2024-04-12T13:59:03.682Z,4.93
2024-04-12T14:01:51.901Z,6.17
2024-04-12T14:04:40.651Z,3.50
2024-04-12T14:07:34.981Z,6.43
2024-04-12T14:10:21.986Z,3.53
2024-04-12T14:13:18.268Z,4.53
2024-04-12T14:16:04.646Z,3.53
2024-04-12T14:18:56.088Z,4.53
2024-04-12T14:21:45.003Z,3.27
2024-04-12T14:24:48.965Z,4.07
2024-04-12T14:27:37.071Z,2.83
2024-04-12T14:30:23.008Z,6.70
2024-04-12T14:33:11.247Z,3.47
2024-04-12T14:35:59.582Z,5.00
2024-04-12T14:38:50.708Z,3.42
2024-04-12T14:41:35.962Z,2.97
2024-04-12T14:44:24.115Z,4.40
2024-04-12T14:47:09.470Z,2.90
2024-04-12T14:49:57.932Z,3.83
2024-04-12T14:52:44.916Z,3.63
2024-04-12T14:55:35.880Z,5.03
2024-04-12T14:58:21.738Z,4.33
2024-04-12T15:01:09.962Z,5.57
2024-04-12T15:04:13.781Z,3.93
2024-04-12T15:07:18.207Z,3.10
2024-04-12T15:10:23.212Z,3.65
2024-04-12T15:13:29.853Z,4.85
2024-04-12T15:16:34.590Z,3.50
2024-04-12T15:19:38.631Z,5.93
2024-04-12T15:22:42.859Z,4.47
2024-04-12T15:25:47.308Z,2.97
2024-04-12T15:28:53.770Z,4.53
2024-04-12T15:31:58.276Z,6.25
2024-04-12T15:35:02.622Z,4.72
2024-04-12T15:38:09.787Z,2.45
2024-04-12T15:41:14.313Z,2.78
2024-04-12T15:44:21.756Z,3.20
2024-04-12T15:47:07.481Z,3.20
2024-04-12T15:50:18.798Z,2.92
2024-04-12T15:53:19.561Z,4.20
2024-04-12T15:56:24.001Z,2.20
2024-04-12T15:59:30.790Z,5.33
2024-04-12T16:02:34.984Z,3.50
2024-04-12T16:05:39.410Z,4.20
2024-04-12T16:08:55.473Z,2.93
2024-04-12T16:11:43.422Z,2.77
2024-04-12T16:14:34.450Z,4.20
2024-04-12T16:17:23.034Z,5.87
2024-04-12T16:20:14.266Z,2.93
2024-04-12T16:22:59.859Z,4.00
2024-04-12T16:25:57.250Z,5.33
2024-04-12T16:28:48.511Z,2.40
2024-04-12T16:31:39.859Z,5.83
2024-04-12T16:34:25.229Z,6.03
2024-04-12T16:37:13.962Z,2.13
2024-04-12T16:39:59.549Z,3.30
2024-04-12T16:42:47.757Z,3.47
2024-04-12T16:45:37.050Z,2.70
2024-04-12T16:48:25.545Z,4.73
2024-04-12T16:51:14.339Z,4.13
2024-04-12T16:54:02.594Z,2.67
2024-04-12T16:56:48.452Z,4.73
2024-04-12T16:59:36.781Z,2.27
2024-04-12T17:02:23.634Z,4.20
2024-04-12T17:05:15.512Z,2.77
2024-04-12T17:08:01.075Z,5.67
2024-04-12T17:10:54.213Z,2.53
2024-04-12T17:13:40.136Z,4.07
2024-04-12T17:16:28.383Z,3.57
2024-04-12T17:19:14.052Z,2.50
2024-04-12T17:22:05.073Z,4.20
2024-04-12T17:24:51.870Z,5.47
2024-04-12T17:27:40.228Z,2.80
2024-04-12T17:30:25.884Z,2.40
2024-04-12T17:33:14.280Z,3.20
2024-04-12T17:36:06.972Z,6.07
2024-04-12T17:39:07.135Z,5.07
2024-04-12T17:41:52.891Z,2.90
2024-04-12T17:44:41.806Z,2.60
2024-04-12T17:47:27.355Z,2.60
2024-04-12T17:50:15.628Z,3.37
2024-04-12T17:53:02.737Z,3.00
2024-04-12T17:55:54.104Z,2.47
2024-04-12T17:58:42.481Z,3.13
2024-04-12T18:01:29.098Z,2.40
2024-04-12T18:04:17.265Z,3.20
2024-04-12T18:07:03.028Z,3.40
2024-04-12T18:09:52.957Z,3.30
2024-04-12T18:12:42.958Z,6.70
2024-04-12T18:15:32.243Z,4.47
2024-04-12T18:18:20.762Z,4.07
2024-04-12T18:21:08.058Z,5.67
2024-04-12T18:23:58.847Z,2.30
2024-04-12T18:26:44.479Z,2.63
2024-04-12T18:29:35.035Z,3.37
2024-04-12T18:32:20.930Z,5.97
2024-04-12T18:35:13.982Z,3.70
2024-04-12T18:38:19.291Z,2.87
2024-04-12T18:41:24.202Z,3.03
2024-04-12T18:44:27.368Z,3.80
2024-04-12T18:47:17.856Z,4.53
2024-04-12T18:50:06.374Z,5.20
2024-04-12T18:52:54.569Z,3.10
2024-04-12T18:55:42.799Z,3.80
2024-04-12T18:58:28.506Z,5.23
2024-04-12T19:01:17.134Z,3.63
2024-04-12T19:04:08.122Z,3.13
2024-04-12T19:06:56.367Z,4.77
2024-04-12T19:09:42.326Z,3.43
2024-04-12T19:12:30.549Z,2.97
2024-04-12T19:15:16.430Z,6.03
2024-04-12T19:18:10.073Z,3.67
2024-04-12T19:21:04.910Z,6.03
2024-04-12T19:23:50.663Z,4.13
2024-04-12T19:26:39.343Z,3.27
2024-04-12T19:29:33.207Z,2.53
2024-04-12T19:32:18.602Z,5.10
2024-04-12T19:35:08.055Z,3.30
2024-04-12T19:37:56.226Z,3.57
2024-04-12T19:40:45.497Z,3.70
2024-04-12T19:43:31.318Z,3.27
2024-04-12T19:46:19.528Z,3.70
2024-04-12T19:49:07.298Z,4.70
2024-04-12T19:51:55.654Z,4.87
2024-04-12T19:54:45.996Z,3.07
2024-04-12T19:57:39.706Z,5.13
2024-04-12T20:00:25.858Z,3.67
2024-04-12T20:03:14.421Z,4.67
2024-04-12T20:06:02.615Z,5.67
2024-04-12T20:08:48.707Z,3.60
2024-04-12T20:11:39.513Z,6.77
2024-04-12T20:14:25.413Z,3.83
2024-04-12T20:17:13.967Z,3.90
2024-04-12T20:20:02.983Z,3.30
2024-04-12T20:22:51.272Z,4.03
2024-04-12T20:25:37.610Z,2.77
2024-04-12T20:28:28.566Z,3.73
2024-04-12T20:31:24.564Z,4.27
2024-04-12T20:34:25.050Z,3.67
2024-04-12T20:37:12.291Z,3.27
2024-04-12T20:40:00.534Z,2.53
2024-04-12T20:43:05.117Z,3.20
2024-04-12T20:46:02.548Z,3.00
2024-04-12T20:48:48.967Z,5.03
2024-04-12T20:51:38.941Z,3.03
2024-04-12T20:54:24.766Z,3.93
2024-04-12T20:57:19.016Z,4.20
2024-04-12T21:00:05.570Z,3.53
2024-04-12T21:03:00.603Z,3.97
2024-04-12T21:05:46.207Z,5.30
2024-04-12T21:08:34.109Z,3.27
2024-04-12T21:11:26.044Z,4.73
2024-04-12T21:14:15.331Z,5.13
2024-04-12T21:17:02.319Z,5.57
2024-04-12T21:19:53.658Z,4.37
2024-04-12T21:22:39.029Z,5.10
2024-04-12T21:25:27.424Z,4.20
2024-04-12T21:28:12.887Z,4.70
2024-04-12T21:31:00.949Z,5.93
2024-04-12T21:33:46.369Z,4.07
2024-04-12T21:36:39.316Z,5.20
2024-04-12T21:39:25.363Z,5.03
2024-04-12T21:42:14.150Z,3.77
2024-04-12T21:45:00.372Z,4.07
2024-04-12T21:47:48.969Z,2.87
2024-04-12T21:50:37.983Z,3.00
2024-04-12T21:53:28.746Z,4.40
2024-04-12T21:56:16.077Z,6.00
2024-04-12T21:59:05.906Z,3.90
2024-04-12T22:01:51.786Z,6.73
2024-04-12T22:04:40.088Z,4.70
2024-04-12T22:07:25.544Z,5.07
2024-04-12T22:10:17.925Z,10.23
2024-04-12T22:13:04.224Z,5.00
2024-04-12T22:15:54.906Z,6.27
2024-04-12T22:18:40.976Z,3.80
2024-04-12T22:21:29.362Z,3.87
2024-04-12T22:24:15.297Z,4.10
2024-04-12T22:27:08.658Z,5.40
2024-04-12T22:29:54.614Z,4.83
2024-04-12T22:32:43.621Z,7.37
2024-04-12T22:35:32.146Z,3.73
2024-04-12T22:38:20.030Z,6.07
2024-04-12T22:41:06.771Z,10.03
2024-04-12T22:43:59.052Z,4.57
2024-04-12T22:46:44.877Z,6.73
2024-04-12T22:49:33.132Z,5.73
2024-04-12T22:52:21.141Z,7.77
2024-04-12T22:55:10.672Z,6.33
2024-04-12T22:57:58.509Z,6.57
2024-04-12T23:00:47.002Z,5.67
2024-04-12T23:03:35.868Z,8.23
2024-04-12T23:06:21.674Z,4.13
2024-04-12T23:09:10.185Z,4.57
2024-04-12T23:11:56.648Z,5.30
2024-04-12T23:14:44.930Z,4.47
2024-04-12T23:17:33.203Z,7.30
2024-04-12T23:20:23.347Z,4.97
2024-04-12T23:23:09.717Z,4.20
2024-04-12T23:25:58.200Z,5.70
2024-04-12T23:28:44.653Z,5.93
2024-04-12T23:31:32.515Z,4.97
2024-04-12T23:34:22.188Z,6.87
2024-04-12T23:37:10.825Z,5.97
2024-04-12T23:39:56.569Z,4.33
2024-04-12T23:42:45.231Z,7.33
2024-04-12T23:45:31.096Z,4.90
2024-04-12T23:48:19.830Z,7.93
2024-04-12T23:51:08.443Z,5.07
2024-04-12T23:53:56.705Z,7.93
2024-04-12T23:56:43.072Z,3.50
2024-04-12T23:59:31.139Z,3.80
